createdAt,value
2018-06-10T00:01:30.807Z,10.27
2018-06-10T00:04:00.518Z,10.93
2018-06-10T00:06:29.723Z,11.17
2018-06-10T00:08:58.932Z,11.00
2018-06-10T00:11:28.159Z,10.60
2018-06-10T00:13:57.999Z,10.20
2018-06-10T00:16:27.203Z,10.33
2018-06-10T00:18:56.415Z,10.00
2018-06-10T00:21:26.560Z,9.17
2018-06-10T00:23:55.748Z,9.50
2018-06-10T00:26:25.447Z,9.47
2018-06-10T00:28:59.775Z,8.63
2018-06-10T00:31:28.988Z,9.10
2018-06-10T00:33:58.188Z,8.60
2018-06-10T00:36:27.356Z,9.57
2018-06-10T00:38:56.551Z,9.03
2018-06-10T00:41:25.783Z,8.60
2018-06-10T00:43:55.191Z,8.37
2018-06-10T00:46:24.555Z,8.20
2018-06-10T00:48:54.347Z,8.23
2018-06-10T00:51:23.539Z,8.60
2018-06-10T00:53:52.742Z,8.03
2018-06-10T00:56:33.514Z,8.70
2018-06-10T00:59:02.710Z,8.43
2018-06-10T01:01:31.940Z,7.80
2018-06-10T01:04:01.593Z,7.60
2018-06-10T01:06:31.074Z,9.10
2018-06-10T01:09:00.237Z,8.37
2018-06-10T01:11:30.111Z,8.90
2018-06-10T01:13:59.343Z,10.00
2018-06-10T01:16:28.503Z,7.80
2018-06-10T01:18:58.015Z,9.57
2018-06-10T01:21:27.246Z,7.80
2018-06-10T01:23:56.483Z,9.33
2018-06-10T01:26:31.203Z,10.13
2018-06-10T01:29:00.397Z,9.00
2018-06-10T01:31:29.579Z,8.93
2018-06-10T01:33:58.806Z,10.20
2018-06-10T01:36:27.987Z,9.20
2018-06-10T01:38:57.189Z,8.90
2018-06-10T01:41:26.387Z,9.20
2018-06-10T01:43:55.582Z,9.17
2018-06-10T01:46:24.799Z,8.70
2018-06-10T01:48:54.044Z,9.07
2018-06-10T01:51:23.499Z,9.10
2018-06-10T01:53:52.717Z,9.07
2018-06-10T01:56:22.189Z,9.33
2018-06-10T01:58:52.088Z,9.27
2018-06-10T02:01:21.367Z,9.77
2018-06-10T02:03:50.567Z,9.53
2018-06-10T02:06:19.744Z,9.17
2018-06-10T02:08:48.911Z,9.57
2018-06-10T02:11:18.455Z,9.57
2018-06-10T02:13:47.652Z,9.23
2018-06-10T02:16:16.834Z,9.20
2018-06-10T02:18:46.040Z,8.30
2018-06-10T02:21:15.242Z,8.57
2018-06-10T02:23:44.441Z,9.57
2018-06-10T02:26:13.630Z,9.17
2018-06-10T02:28:42.611Z,8.93
2018-06-10T02:31:11.671Z,10.40
2018-06-10T02:33:41.271Z,9.23
2018-06-10T02:36:10.483Z,9.67
2018-06-10T02:38:39.647Z,9.07
2018-06-10T02:41:08.847Z,9.70
2018-06-10T02:43:38.035Z,8.80
2018-06-10T02:46:07.215Z,9.43
2018-06-10T02:48:36.439Z,8.70
2018-06-10T02:51:06.152Z,9.23
2018-06-10T02:53:35.343Z,9.80
2018-06-10T02:56:04.979Z,9.57
2018-06-10T02:58:34.335Z,9.57
2018-06-10T03:01:03.956Z,9.93
2018-06-10T03:03:33.158Z,9.70
2018-06-10T03:06:02.710Z,10.03
2018-06-10T03:08:31.885Z,8.70
2018-06-10T03:11:01.191Z,9.40
2018-06-10T03:13:30.349Z,9.40
2018-06-10T03:15:59.523Z,10.33
2018-06-10T03:18:29.299Z,8.37
2018-06-10T03:20:58.459Z,9.70
2018-06-10T03:23:27.675Z,9.23
2018-06-10T03:25:56.850Z,9.10
2018-06-10T03:28:26.211Z,9.33
2018-06-10T03:30:55.404Z,9.13
2018-06-10T03:33:24.913Z,9.57
2018-06-10T03:35:54.098Z,10.27
2018-06-10T03:38:23.290Z,9.17
2018-06-10T03:40:52.724Z,9.70
2018-06-10T03:43:21.910Z,10.53
2018-06-10T03:45:51.075Z,9.20
2018-06-10T03:48:20.863Z,8.57
2018-06-10T03:50:49.983Z,9.50
2018-06-10T03:53:19.167Z,9.73
2018-06-10T03:55:48.363Z,8.67
2018-06-10T03:58:17.543Z,9.00
2018-06-10T04:00:46.956Z,8.90
2018-06-10T04:03:16.731Z,9.50
2018-06-10T04:05:46.503Z,9.17
2018-06-10T04:08:15.690Z,9.60
2018-06-10T04:10:44.883Z,8.30
2018-06-10T04:13:13.749Z,8.90
2018-06-10T04:15:42.799Z,9.67
2018-06-10T04:18:12.017Z,9.10
2018-06-10T04:20:42.454Z,8.87
2018-06-10T04:23:11.643Z,8.60
2018-06-10T04:25:41.022Z,8.27
2018-06-10T04:28:10.180Z,8.33
2018-06-10T04:30:39.351Z,9.27
2018-06-10T04:33:09.332Z,8.20
2018-06-10T04:35:38.543Z,8.80
2018-06-10T04:38:07.703Z,9.10
2018-06-10T04:40:36.919Z,9.57
2018-06-10T04:43:06.131Z,8.97
2018-06-10T04:45:35.331Z,9.90
2018-06-10T04:48:04.734Z,9.00
2018-06-10T04:50:33.898Z,9.40
2018-06-10T04:53:03.121Z,9.13
2018-06-10T04:55:32.397Z,8.77
2018-06-10T04:58:02.331Z,9.43
2018-06-10T05:00:31.543Z,9.00
2018-06-10T05:03:00.744Z,9.37
2018-06-10T05:05:30.506Z,10.90
2018-06-10T05:08:00.555Z,9.77
2018-06-10T05:10:30.283Z,9.53
2018-06-10T05:12:59.520Z,9.60
2018-06-10T05:15:28.692Z,9.20
2018-06-10T05:17:57.903Z,9.40
2018-06-10T05:20:27.094Z,10.53
2018-06-10T05:22:56.291Z,10.27
2018-06-10T05:25:25.517Z,9.87
2018-06-10T05:27:54.712Z,9.07
2018-06-10T05:30:23.887Z,10.70
2018-06-10T05:32:54.589Z,10.60
2018-06-10T05:35:23.743Z,11.23
2018-06-10T05:37:52.904Z,10.23
2018-06-10T05:40:22.112Z,11.93
2018-06-10T05:42:51.274Z,11.80
2018-06-10T05:45:20.452Z,10.90
2018-06-10T05:47:50.099Z,11.63
2018-06-10T05:50:19.279Z,11.40
2018-06-10T05:52:48.447Z,11.77
2018-06-10T05:55:17.848Z,12.23
2018-06-10T05:57:48.043Z,11.37
2018-06-10T06:00:17.231Z,11.50
2018-06-10T06:02:46.465Z,11.27
2018-06-10T06:05:15.643Z,11.03
2018-06-10T06:07:45.222Z,11.73
2018-06-10T06:10:14.459Z,10.87
2018-06-10T06:12:43.637Z,11.17
2018-06-10T06:15:12.833Z,10.63
2018-06-10T06:17:42.645Z,11.50
2018-06-10T06:20:11.834Z,11.43
2018-06-10T06:22:41.023Z,12.00
2018-06-10T06:25:10.284Z,10.87
2018-06-10T06:27:39.546Z,11.03
2018-06-10T06:30:08.755Z,10.57
2018-06-10T06:32:38.007Z,9.10
2018-06-10T06:35:07.208Z,11.00
2018-06-10T06:37:37.328Z,9.10
2018-06-10T06:40:06.769Z,9.73
2018-06-10T06:42:36.007Z,11.90
2018-06-10T06:45:05.278Z,9.43
2018-06-10T06:47:34.470Z,9.47
2018-06-10T06:50:03.767Z,9.93
2018-06-10T06:52:33.016Z,10.37
2018-06-10T06:55:01.845Z,10.60
2018-06-10T06:57:30.896Z,9.90
2018-06-10T07:00:00.203Z,10.37
2018-06-10T07:02:29.599Z,9.23
2018-06-10T07:04:58.795Z,9.13
2018-06-10T07:07:27.699Z,9.87
2018-06-10T07:09:57.099Z,9.57
2018-06-10T07:12:25.958Z,9.73
2018-06-10T07:14:55.027Z,10.20
2018-06-10T07:17:24.235Z,9.77
2018-06-10T07:19:53.467Z,9.53
2018-06-10T07:22:22.871Z,9.07
2018-06-10T07:24:52.237Z,9.53
2018-06-10T07:27:21.329Z,9.90
2018-06-10T07:29:50.524Z,8.30
2018-06-10T07:32:19.733Z,8.50
2018-06-10T07:34:48.935Z,9.10
2018-06-10T07:37:18.715Z,8.37
2018-06-10T07:39:47.913Z,9.53
2018-06-10T07:42:17.124Z,9.37
2018-06-10T07:44:46.287Z,7.70
2018-06-10T07:47:15.910Z,9.50
2018-06-10T07:49:45.064Z,8.70
2018-06-10T07:52:14.259Z,9.00
2018-06-10T07:54:43.458Z,9.57
2018-06-10T07:57:12.632Z,7.37
2018-06-10T07:59:41.803Z,8.33
2018-06-10T08:02:10.987Z,9.70
2018-06-10T08:04:40.148Z,8.80
2018-06-10T08:07:09.327Z,9.47
2018-06-10T08:09:38.843Z,8.60
2018-06-10T08:12:08.359Z,9.17
2018-06-10T08:14:37.675Z,8.73
2018-06-10T08:17:06.884Z,9.00
2018-06-10T08:19:36.044Z,7.77
2018-06-10T08:22:05.229Z,9.47
2018-06-10T08:24:34.568Z,9.23
2018-06-10T08:27:04.171Z,8.03
2018-06-10T08:29:33.338Z,9.17
2018-06-10T08:32:05.915Z,7.00
2018-06-10T08:34:35.115Z,8.37
2018-06-10T08:37:08.435Z,7.10
2018-06-10T08:39:37.814Z,6.80
2018-06-10T08:42:07.008Z,6.73
2018-06-10T08:44:40.335Z,6.70
2018-06-10T08:47:11.784Z,7.10
2018-06-10T08:49:41.135Z,7.47
2018-06-10T08:52:10.498Z,6.80
2018-06-10T08:54:39.642Z,7.33
2018-06-10T08:57:09.015Z,6.50
2018-06-10T08:59:38.580Z,6.23
2018-06-10T09:02:07.879Z,6.27
2018-06-10T09:04:37.064Z,7.60
2018-06-10T09:07:06.231Z,6.93
2018-06-10T09:09:35.899Z,7.27
2018-06-10T09:12:05.511Z,7.57
2018-06-10T09:14:34.691Z,7.83
2018-06-10T09:17:03.901Z,7.80
2018-06-10T09:19:36.395Z,6.77
2018-06-10T09:22:05.482Z,7.27
2018-06-10T09:24:34.669Z,8.50
2018-06-10T09:27:04.403Z,7.60
2018-06-10T09:29:33.838Z,7.43
2018-06-10T09:32:03.584Z,7.60
2018-06-10T09:34:33.042Z,5.97
2018-06-10T09:37:02.371Z,5.83
2018-06-10T09:39:31.695Z,6.50
2018-06-10T09:42:01.069Z,6.30
2018-06-10T09:44:30.229Z,7.07
2018-06-10T09:46:59.595Z,6.73
2018-06-10T09:49:29.751Z,7.30
2018-06-10T09:51:59.133Z,7.00
2018-06-10T09:54:28.411Z,5.80
2018-06-10T09:56:57.987Z,5.90
2018-06-10T09:59:29.553Z,5.90
2018-06-10T10:01:58.843Z,5.83
2018-06-10T10:04:29.315Z,5.83
2018-06-10T10:06:58.687Z,5.70
2018-06-10T10:09:27.907Z,6.67
2018-06-10T10:11:57.177Z,6.60
2018-06-10T10:14:26.558Z,6.70
2018-06-10T10:16:56.146Z,6.70
2018-06-10T10:19:25.206Z,7.30
2018-06-10T10:21:54.428Z,6.83
2018-06-10T10:24:23.714Z,6.90
2018-06-10T10:26:53.008Z,7.50
2018-06-10T10:29:22.285Z,7.53
2018-06-10T10:31:51.673Z,10.10
2018-06-10T10:34:21.259Z,8.30
2018-06-10T10:36:50.527Z,9.70
2018-06-10T10:39:20.204Z,9.10
2018-06-10T10:41:49.402Z,8.40
2018-06-10T10:44:18.766Z,9.90
2018-06-10T10:46:48.004Z,8.90
2018-06-10T10:49:17.316Z,9.40
2018-06-10T10:51:46.500Z,10.00
2018-06-10T10:54:15.687Z,9.17
2018-06-10T10:56:44.868Z,8.50
2018-06-10T10:59:14.083Z,9.10
2018-06-10T11:01:43.471Z,8.50
2018-06-10T11:04:12.644Z,8.93
2018-06-10T11:06:42.144Z,8.87
2018-06-10T11:09:11.468Z,10.27
2018-06-10T11:11:40.687Z,8.87
2018-06-10T11:14:10.742Z,8.70
2018-06-10T11:16:39.959Z,9.23
2018-06-10T11:19:09.058Z,7.63
2018-06-10T11:21:38.387Z,8.20
2018-06-10T11:24:08.111Z,8.20
2018-06-10T11:26:37.438Z,7.60
2018-06-10T11:29:06.603Z,7.53
2018-06-10T11:31:35.799Z,7.60
2018-06-10T11:34:05.959Z,7.87
2018-06-10T11:36:36.203Z,8.27
2018-06-10T11:39:07.840Z,7.27
2018-06-10T11:41:37.123Z,7.77
2018-06-10T11:44:06.527Z,7.87
2018-06-10T11:46:35.931Z,8.03
2018-06-10T11:49:06.396Z,8.17
2018-06-10T11:51:36.483Z,8.63
2018-06-10T11:54:05.776Z,8.27
2018-06-10T11:56:35.216Z,8.30
2018-06-10T11:59:04.558Z,7.70
2018-06-10T12:01:34.095Z,7.97
2018-06-10T12:04:04.592Z,7.57
2018-06-10T12:06:33.747Z,8.60
2018-06-10T12:09:04.603Z,8.10
2018-06-10T12:11:34.136Z,7.33
2018-06-10T12:14:03.981Z,7.67
2018-06-10T12:16:33.161Z,7.97
2018-06-10T12:19:02.594Z,8.00
2018-06-10T12:21:32.512Z,7.97
2018-06-10T12:24:02.751Z,8.70
2018-06-10T12:26:31.883Z,9.00
2018-06-10T12:29:01.030Z,8.93
2018-06-10T12:31:30.207Z,9.40
2018-06-10T12:33:59.634Z,8.77
2018-06-10T12:36:28.934Z,7.40
2018-06-10T12:38:58.239Z,7.33
2018-06-10T12:41:28.849Z,8.37
2018-06-10T12:43:57.987Z,8.77
2018-06-10T12:46:26.863Z,7.57
2018-06-10T12:48:56.319Z,7.87
2018-06-10T12:51:25.472Z,7.40
2018-06-10T12:53:54.673Z,7.47
2018-06-10T12:56:23.872Z,7.53
2018-06-10T12:58:53.473Z,7.70
2018-06-10T13:01:22.332Z,7.63
2018-06-10T13:03:51.402Z,7.70
2018-06-10T13:06:20.592Z,7.17
2018-06-10T13:08:49.756Z,7.60
2018-06-10T13:11:19.403Z,7.70
2018-06-10T13:13:48.899Z,6.90
2018-06-10T13:16:18.096Z,7.03
2018-06-10T13:18:47.367Z,7.07
2018-06-10T13:21:17.767Z,6.10
2018-06-10T13:23:46.962Z,6.40
2018-06-10T13:26:16.179Z,7.03
2018-06-10T13:28:45.386Z,6.00
2018-06-10T13:31:14.318Z,6.20
2018-06-10T13:33:43.854Z,6.30
2018-06-10T13:36:13.471Z,6.50
2018-06-10T13:38:43.722Z,7.77
2018-06-10T13:41:13.064Z,7.10
2018-06-10T13:43:42.588Z,7.63
2018-06-10T13:46:11.888Z,8.70
2018-06-10T13:48:41.090Z,7.40
2018-06-10T13:51:10.328Z,8.13
2018-06-10T13:53:39.918Z,7.47
2018-06-10T13:56:09.094Z,8.43
2018-06-10T13:58:39.279Z,7.40
2018-06-10T14:01:08.532Z,8.00
2018-06-10T14:03:37.826Z,8.17
2018-06-10T14:06:07.089Z,8.07
2018-06-10T14:08:36.296Z,7.27
2018-06-10T14:11:05.510Z,7.67
2018-06-10T14:13:35.224Z,6.43
2018-06-10T14:16:04.936Z,6.70
2018-06-10T14:18:34.351Z,7.03
2018-06-10T14:21:03.775Z,6.63
2018-06-10T14:23:32.847Z,7.43
2018-06-10T14:26:02.203Z,6.33
2018-06-10T14:28:32.669Z,5.90
2018-06-10T14:31:02.956Z,5.97
2018-06-10T14:33:32.195Z,6.20
2018-06-10T14:36:01.581Z,6.13
2018-06-10T14:38:30.866Z,7.20
2018-06-10T14:41:00.044Z,6.23
2018-06-10T14:43:29.339Z,5.90
2018-06-10T14:45:58.780Z,5.70
2018-06-10T14:48:27.998Z,6.00
2018-06-10T14:50:57.330Z,5.97
2018-06-10T14:53:26.631Z,6.20
2018-06-10T14:55:55.886Z,6.30
2018-06-10T14:58:25.203Z,5.80
2018-06-10T15:00:54.464Z,5.50
2018-06-10T15:03:23.623Z,5.77
2018-06-10T15:05:52.851Z,5.40
2018-06-10T15:08:22.261Z,6.20
2018-06-10T15:10:51.415Z,5.43
2018-06-10T15:13:20.784Z,6.23
2018-06-10T15:15:49.952Z,5.30
2018-06-10T15:18:19.609Z,5.40
2018-06-10T15:20:48.928Z,6.63
2018-06-10T15:23:18.470Z,6.50
2018-06-10T15:25:48.732Z,5.20
2018-06-10T15:28:17.903Z,4.90
2018-06-10T15:30:47.081Z,5.43
2018-06-10T15:33:16.219Z,5.13
2018-06-10T15:35:45.399Z,5.30
2018-06-10T15:38:14.690Z,5.40
2018-06-10T15:40:43.872Z,5.20
2018-06-10T15:43:13.590Z,5.47
2018-06-10T15:45:42.879Z,5.40
2018-06-10T15:48:12.151Z,5.50
2018-06-10T15:50:41.307Z,4.90
2018-06-10T15:53:10.487Z,5.10
2018-06-10T15:55:39.643Z,5.90
2018-06-10T15:58:08.818Z,4.90
2018-06-10T16:00:38.030Z,5.30
2018-06-10T16:03:07.186Z,5.80
2018-06-10T16:05:36.615Z,5.40
2018-06-10T16:08:05.975Z,5.40
2018-06-10T16:10:36.480Z,4.30
2018-06-10T16:13:05.775Z,4.73
2018-06-10T16:15:41.787Z,4.63
2018-06-10T16:18:10.934Z,4.80
2018-06-10T16:20:41.013Z,4.73
2018-06-10T16:23:10.906Z,4.30
2018-06-10T16:25:40.238Z,4.47
2018-06-10T16:28:10.595Z,4.90
2018-06-10T16:30:39.794Z,4.03
2018-06-10T16:33:08.958Z,4.40
2018-06-10T16:35:38.355Z,5.00
2018-06-10T16:38:07.756Z,4.13
2018-06-10T16:40:36.916Z,4.40
2018-06-10T16:43:06.259Z,4.33
2018-06-10T16:45:35.846Z,4.30
2018-06-10T16:48:05.174Z,4.57
2018-06-10T16:50:34.467Z,4.70
2018-06-10T16:53:03.639Z,4.70
2018-06-10T16:55:32.825Z,4.80
2018-06-10T16:58:02.227Z,4.67
2018-06-10T17:00:31.446Z,4.60
2018-06-10T17:03:01.484Z,5.30
2018-06-10T17:05:30.894Z,5.50
2018-06-10T17:08:00.358Z,5.07
2018-06-10T17:10:30.726Z,5.40
2018-06-10T17:12:59.923Z,5.53
2018-06-10T17:15:29.349Z,6.27
2018-06-10T17:17:58.527Z,5.77
2018-06-10T17:20:27.916Z,5.77
2018-06-10T17:22:57.247Z,5.93
2018-06-10T17:25:26.399Z,5.83
2018-06-10T17:27:55.575Z,6.33
2018-06-10T17:30:25.092Z,6.10
2018-06-10T17:32:54.265Z,5.93
2018-06-10T17:35:23.718Z,6.30
2018-06-10T17:37:52.922Z,6.50
2018-06-10T17:40:22.422Z,6.17
2018-06-10T17:42:52.242Z,6.10
2018-06-10T17:45:23.172Z,5.90
2018-06-10T17:47:54.131Z,6.27
2018-06-10T17:50:23.799Z,6.00
2018-06-10T17:52:52.955Z,6.30
2018-06-10T17:55:22.423Z,6.60
2018-06-10T17:57:51.663Z,6.90
2018-06-10T18:00:20.789Z,6.33
2018-06-10T18:02:49.874Z,6.17
2018-06-10T18:05:19.092Z,6.57
2018-06-10T18:07:48.312Z,6.87
2018-06-10T18:10:17.643Z,6.40
2018-06-10T18:12:48.140Z,7.03
2018-06-10T18:15:17.407Z,7.00
2018-06-10T18:17:46.591Z,6.60
2018-06-10T18:20:15.775Z,7.50
2018-06-10T18:22:45.047Z,7.03
2018-06-10T18:25:14.245Z,6.80
2018-06-10T18:27:43.705Z,6.93
2018-06-10T18:30:12.899Z,7.47
2018-06-10T18:32:42.082Z,7.17
2018-06-10T18:35:12.131Z,8.10
2018-06-10T18:37:41.311Z,8.73
2018-06-10T18:40:10.487Z,7.90
2018-06-10T18:42:39.688Z,7.90
2018-06-10T18:45:08.839Z,7.33
2018-06-10T18:47:38.003Z,6.80
2018-06-10T18:50:07.753Z,7.57
2018-06-10T18:52:36.889Z,7.40
2018-06-10T18:55:06.074Z,7.30
2018-06-10T18:57:35.836Z,7.47
2018-06-10T19:00:05.344Z,7.57
2018-06-10T19:02:34.522Z,7.93
2018-06-10T19:05:03.857Z,8.00
2018-06-10T19:07:32.999Z,7.80
2018-06-10T19:10:02.407Z,8.57
2018-06-10T19:12:31.892Z,8.30
2018-06-10T19:15:01.270Z,8.17
2018-06-10T19:17:30.438Z,8.10
2018-06-10T19:20:00.204Z,8.13
2018-06-10T19:22:29.361Z,8.40
2018-06-10T19:24:58.790Z,8.37
2018-06-10T19:27:28.042Z,7.60
2018-06-10T19:29:57.377Z,8.10
2018-06-10T19:32:26.851Z,8.17
2018-06-10T19:34:56.139Z,8.00
2018-06-10T19:37:25.366Z,9.60
2018-06-10T19:39:54.512Z,8.70
2018-06-10T19:42:24.058Z,8.40
2018-06-10T19:44:53.226Z,8.13
2018-06-10T19:47:22.546Z,8.67
2018-06-10T19:49:51.723Z,9.33
2018-06-10T19:52:21.113Z,9.70
2018-06-10T19:54:50.281Z,9.03
2018-06-10T19:57:19.715Z,9.20
2018-06-10T19:59:48.875Z,8.87
2018-06-10T20:02:18.036Z,8.50
2018-06-10T20:04:47.504Z,9.20
2018-06-10T20:07:16.702Z,8.23
2018-06-10T20:09:46.618Z,9.50
2018-06-10T20:12:16.167Z,8.40
2018-06-10T20:14:45.351Z,9.00
2018-06-10T20:17:14.243Z,7.77
2018-06-10T20:19:43.459Z,9.17
2018-06-10T20:22:12.763Z,10.00
2018-06-10T20:24:43.267Z,9.87
2018-06-10T20:27:12.558Z,10.47
2018-06-10T20:29:41.694Z,9.63
2018-06-10T20:32:13.263Z,9.40
2018-06-10T20:34:42.598Z,9.07
2018-06-10T20:37:12.372Z,9.47
2018-06-10T20:39:41.649Z,9.40
2018-06-10T20:42:10.858Z,8.80
2018-06-10T20:44:40.196Z,10.03
2018-06-10T20:47:09.435Z,9.10
2018-06-10T20:49:38.655Z,9.60
2018-06-10T20:52:07.834Z,8.63
2018-06-10T20:54:37.153Z,8.90
2018-06-10T20:57:06.316Z,10.30
2018-06-10T20:59:35.161Z,10.40
2018-06-10T21:02:04.315Z,10.00
2018-06-10T21:04:33.476Z,9.70
2018-06-10T21:07:02.663Z,10.30
2018-06-10T21:09:32.015Z,9.40
2018-06-10T21:12:01.188Z,9.57
2018-06-10T21:14:30.534Z,9.20
2018-06-10T21:16:59.714Z,9.10
2018-06-10T21:19:28.563Z,8.50
2018-06-10T21:21:57.611Z,9.17
2018-06-10T21:24:26.822Z,8.50
2018-06-10T21:26:56.083Z,9.40
2018-06-10T21:29:24.969Z,9.10
2018-06-10T21:31:54.382Z,8.60
2018-06-10T21:34:23.242Z,8.37
2018-06-10T21:36:52.287Z,8.70
2018-06-10T21:39:21.487Z,8.70
2018-06-10T21:41:50.682Z,9.00
2018-06-10T21:44:19.879Z,8.07
2018-06-10T21:46:49.080Z,8.00
2018-06-10T21:49:18.251Z,9.10
2018-06-10T21:51:47.100Z,8.83
2018-06-10T21:54:16.371Z,8.10
2018-06-10T21:56:45.606Z,9.00
2018-06-10T21:59:14.735Z,8.23
2018-06-10T22:01:43.907Z,8.43
2018-06-10T22:04:13.060Z,8.30
2018-06-10T22:06:42.251Z,8.57
2018-06-10T22:09:11.527Z,9.57
2018-06-10T22:11:40.740Z,9.13
2018-06-10T22:14:10.469Z,8.77
2018-06-10T22:16:40.044Z,7.60
2018-06-10T22:19:09.218Z,8.43
2018-06-10T22:21:38.391Z,8.27
2018-06-10T22:24:07.615Z,8.50
2018-06-10T22:26:36.790Z,8.00
2018-06-10T22:29:06.151Z,8.67
2018-06-10T22:31:35.374Z,9.13
2018-06-10T22:34:04.566Z,8.33
2018-06-10T22:36:33.721Z,8.30
2018-06-10T22:39:03.071Z,10.73
2018-06-10T22:41:32.241Z,8.47
2018-06-10T22:44:01.095Z,8.20
2018-06-10T22:46:30.147Z,8.03
2018-06-10T22:48:59.518Z,8.77
2018-06-10T22:51:28.691Z,8.90
2018-06-10T22:54:09.255Z,8.70
2018-06-10T22:56:38.481Z,9.10
2018-06-10T22:59:07.628Z,8.93
2018-06-10T23:01:36.836Z,10.60
2018-06-10T23:04:06.007Z,9.90
2018-06-10T23:06:35.170Z,8.70
2018-06-10T23:09:05.882Z,9.03
2018-06-10T23:11:35.047Z,8.60
2018-06-10T23:14:04.250Z,8.03
2018-06-10T23:16:34.159Z,8.43
2018-06-10T23:19:03.455Z,9.20
2018-06-10T23:21:32.606Z,7.80
2018-06-10T23:24:01.813Z,8.17
2018-06-10T23:26:31.200Z,7.87
2018-06-10T23:29:00.351Z,8.30
2018-06-10T23:31:29.997Z,7.60
2018-06-10T23:33:59.179Z,6.90
2018-06-10T23:36:28.614Z,7.30
2018-06-10T23:38:58.354Z,9.00
2018-06-10T23:41:27.811Z,9.70
2018-06-10T23:43:57.799Z,10.60
2018-06-10T23:46:27.084Z,10.83
2018-06-10T23:48:56.247Z,11.10
2018-06-10T23:51:25.531Z,10.40
2018-06-10T23:53:54.763Z,9.27
2018-06-10T23:56:23.942Z,9.70
2018-06-10T23:58:53.098Z,9.30
